Time;durP1;ratioP1;P1;durP2;ratioP2;P2;SDS_P1;SDS_P2;PMS_P1;PMS_P2;Temp;Humidity;BMP_temperature;BMP_pressure;BME280_temperature;BME280_humidity;BME280_pressure;Samples;Min_cycle;Max_cycle;Signal;HPM_P1;HPM_P2
2022/09/22 00:01:12;;;;;;;2.22;1.70;;;;;;;8.33;100.00;102444.06;4962800;28;20290;-48
2022/09/22 00:03:43;;;;;;;1.80;1.70;;;;;;;8.40;100.00;102432.47;4967908;28;20190;-51
2022/09/22 00:06:14;;;;;;;3.00;1.50;;;;;;;8.37;100.00;102440.50;4961367;28;20218;-48
2022/09/22 00:08:42;;;;;;;2.00;1.80;;;;;;;8.34;100.00;102441.38;4966368;28;20210;-50
2022/09/22 00:11:15;;;;;;;3.20;1.70;;;;;;;8.23;100.00;102443.22;4960698;28;20237;-47
2022/09/22 00:13:44;;;;;;;4.03;1.98;;;;;;;8.18;100.00;102445.88;4968177;28;20235;-49
2022/09/22 00:16:12;;;;;;;3.42;1.70;;;;;;;8.02;100.00;102439.72;4962074;28;20207;-54
2022/09/22 00:18:38;;;;;;;1.60;1.50;;;;;;;7.93;100.00;102438.81;4984384;28;20221;-48
2022/09/22 00:21:11;;;;;;;2.10;1.98;;;;;;;7.94;100.00;102443.28;4959435;28;20540;-46
2022/09/22 00:23:37;;;;;;;2.03;1.80;;;;;;;7.66;100.00;102447.75;4966398;28;20201;-51
2022/09/22 00:26:05;;;;;;;4.65;1.90;;;;;;;7.60;100.00;102443.28;4969922;28;20245;-50
2022/09/22 00:28:31;;;;;;;3.10;1.80;;;;;;;7.66;100.00;102445.94;4968470;28;20296;-49
2022/09/22 00:30:57;;;;;;;2.10;1.90;;;;;;;7.63;100.00;102441.50;4958463;28;20233;-49
2022/09/22 00:33:23;;;;;;;2.50;2.30;;;;;;;7.60;100.00;102440.63;4966090;28;20190;-47
2022/09/22 00:35:58;;;;;;;2.90;2.10;;;;;;;7.71;100.00;102444.16;4965837;28;20733;-47
2022/09/22 00:38:24;;;;;;;3.72;2.00;;;;;;;7.82;100.00;102429.03;4962316;28;20604;-47
2022/09/22 00:40:50;;;;;;;2.30;2.03;;;;;;;7.82;100.00;102434.38;4961844;28;20194;-51
2022/09/22 00:43:21;;;;;;;3.00;2.10;;;;;;;7.89;100.00;102427.25;4967615;28;20585;-49
2022/09/22 00:45:51;;;;;;;2.60;2.25;;;;;;;7.92;100.00;102435.25;4964865;28;20214;-46
2022/09/22 00:48:20;;;;;;;3.65;2.25;;;;;;;7.86;100.00;102435.25;4965851;28;20846;-48
2022/09/22 00:50:46;;;;;;;2.22;1.98;;;;;;;7.70;100.00;102437.06;4962708;28;20206;-51
2022/09/22 00:53:15;;;;;;;3.70;2.30;;;;;;;7.58;100.00;102434.38;4963102;28;20197;-51
2022/09/22 00:55:48;;;;;;;3.17;2.10;;;;;;;7.63;100.00;102429.94;4962785;28;20257;-47
2022/09/22 00:58:19;;;;;;;3.33;2.53;;;;;;;7.67;100.00;102431.72;4962436;28;20526;-49
2022/09/22 01:00:45;;;;;;;2.38;2.17;;;;;;;7.46;100.00;102427.28;4966512;28;20185;-47
2022/09/22 01:03:14;;;;;;;2.97;2.10;;;;;;;7.55;100.00;102427.28;4962446;28;20538;-47
2022/09/22 01:05:43;;;;;;;2.95;2.20;;;;;;;7.41;100.00;102429.03;4967368;28;20666;-51
2022/09/22 01:08:10;;;;;;;5.50;2.50;;;;;;;7.30;100.00;102421.03;4958725;28;20237;-50
2022/09/22 01:10:37;;;;;;;2.65;2.45;;;;;;;7.20;100.00;102428.13;4964272;28;20202;-53
2022/09/22 01:13:21;;;;;;;1.98;1.80;;;;;;;7.28;100.00;102424.59;4963453;28;20201;-51
2022/09/22 01:16:11;;;;;;;5.07;2.47;;;;;;;7.21;100.00;102413.94;4962226;28;20209;-54
2022/09/22 01:19:09;;;;;;;2.53;2.10;;;;;;;7.38;100.00;102411.25;4969631;28;20554;-51
2022/09/22 01:21:43;;;;;;;2.70;2.50;;;;;;;7.17;100.00;102422.81;4959546;28;20205;-50
2022/09/22 01:24:12;;;;;;;5.40;2.40;;;;;;;7.18;100.00;102405.91;4965892;28;20188;-51
2022/09/22 01:27:08;;;;;;;2.85;2.20;;;;;;;7.11;100.00;102414.81;4963094;28;20201;-48
2022/09/22 01:29:49;;;;;;;2.42;2.22;;;;;;;7.23;100.00;102411.25;4964469;28;20221;-48
2022/09/22 01:32:25;;;;;;;3.53;2.38;;;;;;;7.24;100.00;102413.06;4967452;28;20188;-46
2022/09/22 01:34:59;;;;;;;4.15;2.75;;;;;;;7.33;100.00;102406.84;4960522;28;20264;-47
2022/09/22 01:37:35;;;;;;;3.88;2.72;;;;;;;7.36;100.00;102399.72;4965129;28;20661;-46
2022/09/22 01:40:13;;;;;;;4.30;2.58;;;;;;;7.35;100.00;102400.63;4964266;28;20587;-47
2022/09/22 01:42:48;;;;;;;4.97;2.50;;;;;;;7.37;100.00;102398.84;4965649;28;20309;-47
2022/09/22 01:45:16;;;;;;;2.08;1.98;;;;;;;7.35;100.00;102394.41;4965664;28;20637;-50
2022/09/22 01:47:46;;;;;;;3.65;2.90;;;;;;;7.14;100.00;102395.25;4959889;28;20194;-51
2022/09/22 01:50:36;;;;;;;4.43;2.65;;;;;;;6.99;100.00;102386.34;4969951;28;20579;-51
2022/09/22 01:53:12;;;;;;;3.75;2.55;;;;;;;7.02;100.00;102385.47;4963990;28;20181;-50
2022/09/22 01:55:40;;;;;;;3.08;2.78;;;;;;;7.12;100.00;102386.38;4962201;28;20746;-46
2022/09/22 01:58:13;;;;;;;3.92;2.70;;;;;;;6.88;100.00;102381.88;4963126;28;20225;-45
2022/09/22 02:00:46;;;;;;;4.68;2.72;;;;;;;6.75;100.00;102384.50;4960955;28;20208;-49
2022/09/22 02:03:31;;;;;;;3.60;2.50;;;;;;;6.77;100.00;102387.19;4957911;28;20206;-49
2022/09/22 02:06:07;;;;;;;5.32;3.22;;;;;;;6.74;100.00;102382.75;4966383;28;20185;-49
2022/09/22 02:08:56;;;;;;;3.72;2.33;;;;;;;6.90;100.00;102377.47;4967125;28;20231;-49
2022/09/22 02:11:22;;;;;;;2.88;2.45;;;;;;;6.87;100.00;102373.03;4964328;28;20820;-48
2022/09/22 02:13:48;;;;;;;4.80;2.97;;;;;;;6.78;100.00;102383.66;4964509;28;20226;-49
2022/09/22 02:16:17;;;;;;;4.03;2.58;;;;;;;6.85;100.00;102381.91;4963322;28;20814;-51
2022/09/22 02:18:45;;;;;;;2.88;2.63;;;;;;;6.93;100.00;102382.78;4963679;28;20293;-51
2022/09/22 02:21:12;;;;;;;4.55;2.78;;;;;;;6.79;100.00;102375.66;4963637;28;20186;-51
2022/09/22 02:23:38;;;;;;;3.45;2.90;;;;;;;6.87;100.00;102381.00;4963497;28;20667;-49
2022/09/22 02:26:05;;;;;;;4.60;3.13;;;;;;;6.76;100.00;102380.09;4963509;28;20245;-48
2022/09/22 02:28:34;;;;;;;4.63;2.72;;;;;;;6.72;100.00;102376.53;4958243;28;20214;-48
2022/09/22 02:31:02;;;;;;;3.28;2.75;;;;;;;6.62;100.00;102372.06;4960054;28;20190;-49
2022/09/22 02:33:32;;;;;;;3.58;2.83;;;;;;;6.64;100.00;102374.72;4959864;28;20272;-48
2022/09/22 02:36:12;;;;;;;4.57;2.90;;;;;;;6.65;100.00;102369.41;4967098;28;20312;-49
2022/09/22 02:39:04;;;;;;;2.67;2.47;;;;;;;6.64;100.00;102375.59;4976941;28;20202;-49
2022/09/22 02:41:46;;;;;;;4.53;2.78;;;;;;;6.52;100.00;102371.16;4958814;28;20572;-52
2022/09/22 02:44:27;;;;;;;4.03;2.90;;;;;;;6.48;100.00;102372.03;4965107;28;20637;-48
2022/09/22 02:47:04;;;;;;;4.80;2.97;;;;;;;6.50;100.00;102372.91;4968967;28;20649;-48
2022/09/22 02:49:30;;;;;;;3.83;2.95;;;;;;;6.47;100.00;102366.69;4963165;28;20264;-52
2022/09/22 02:51:57;;;;;;;4.60;2.85;;;;;;;6.48;100.00;102364.03;4961799;28;20183;-48
2022/09/22 02:54:23;;;;;;;5.10;3.20;;;;;;;6.38;100.00;102372.84;4957358;28;20757;-50
2022/09/22 02:56:48;;;;;;;3.75;3.08;;;;;;;6.38;100.00;102365.78;4955007;28;20278;-51
2022/09/22 02:59:14;;;;;;;5.05;2.72;;;;;;;6.30;100.00;102361.31;4961321;28;20217;-48
2022/09/22 03:01:39;;;;;;;3.60;2.58;;;;;;;6.45;100.00;102360.47;4966383;28;20187;-50
2022/09/22 03:04:05;;;;;;;3.13;2.80;;;;;;;6.49;100.00;102359.59;4962045;28;20197;-50
2022/09/22 03:06:30;;;;;;;3.50;2.90;;;;;;;6.38;100.00;102357.78;4960571;28;20635;-48
2022/09/22 03:08:56;;;;;;;5.45;3.17;;;;;;;6.29;100.00;102357.72;4958535;28;20206;-50
2022/09/22 03:11:22;;;;;;;4.28;3.10;;;;;;;6.15;100.00;102355.03;4960498;28;20273;-48
2022/09/22 03:13:48;;;;;;;3.42;2.97;;;;;;;6.10;100.00;102350.56;4964294;28;20225;-48
2022/09/22 03:16:13;;;;;;;4.35;3.00;;;;;;;6.13;100.00;102356.78;4961518;28;20249;-51
2022/09/22 03:18:38;;;;;;;3.85;2.55;;;;;;;6.21;100.00;102354.19;4965354;28;20206;-48
2022/09/22 03:21:04;;;;;;;3.00;2.70;;;;;;;6.29;100.00;102349.75;4969095;28;20178;-49
2022/09/22 03:23:30;;;;;;;3.05;2.78;;;;;;;6.32;100.00;102343.53;4972197;28;20213;-51
2022/09/22 03:25:55;;;;;;;5.00;2.95;;;;;;;6.17;100.00;102347.06;4971319;28;20189;-48
2022/09/22 03:28:21;;;;;;;3.42;2.97;;;;;;;6.15;100.00;102346.16;4970053;28;20210;-47
2022/09/22 03:30:46;;;;;;;4.43;2.97;;;;;;;6.16;100.00;102350.59;4969438;28;20238;-51
2022/09/22 03:33:12;;;;;;;4.30;3.35;;;;;;;6.02;100.00;102357.63;4968360;28;20190;-51
2022/09/22 03:35:37;;;;;;;3.58;3.28;;;;;;;5.95;100.00;102351.38;4971514;28;20249;-49
2022/09/22 03:38:03;;;;;;;3.75;3.10;;;;;;;6.10;100.00;102348.81;4971373;28;20201;-50
2022/09/22 03:40:29;;;;;;;4.68;3.10;;;;;;;6.14;100.00;102342.63;4967476;28;20228;-49
2022/09/22 03:42:54;;;;;;;3.00;2.70;;;;;;;6.17;100.00;102347.06;4966916;28;20191;-51
2022/09/22 03:45:20;;;;;;;4.10;3.10;;;;;;;6.13;100.00;102338.16;4966110;28;20227;-48
2022/09/22 03:47:45;;;;;;;4.63;2.65;;;;;;;6.19;100.00;102351.50;4965147;28;20273;-48
2022/09/22 03:50:12;;;;;;;3.65;3.17;;;;;;;6.04;100.00;102347.88;4966415;28;20350;-51
2022/09/22 03:52:38;;;;;;;5.35;2.95;;;;;;;5.92;100.00;102349.53;4968039;28;20187;-54
2022/09/22 03:55:04;;;;;;;2.97;2.67;;;;;;;6.07;100.00;102343.44;4964398;28;20305;-51
2022/09/22 03:57:30;;;;;;;3.13;2.67;;;;;;;6.13;100.00;102348.81;4962999;28;20236;-48
2022/09/22 03:59:56;;;;;;;3.25;2.42;;;;;;;6.17;100.00;102342.63;4962384;28;20253;-49
2022/09/22 04:02:21;;;;;;;4.20;2.85;;;;;;;6.21;100.00;102348.84;4967227;28;20189;-51
2022/09/22 04:04:46;;;;;;;4.65;2.92;;;;;;;6.10;100.00;102338.16;4967579;28;20186;-48
2022/09/22 04:07:12;;;;;;;3.65;3.20;;;;;;;6.00;100.00;102349.63;4965621;28;20204;-49
2022/09/22 04:09:37;;;;;;;3.92;2.55;;;;;;;6.15;100.00;102349.69;4960640;28;20595;-50
2022/09/22 04:12:03;;;;;;;3.47;2.88;;;;;;;6.18;100.00;102343.50;4959448;28;20197;-48
2022/09/22 04:14:28;;;;;;;4.70;2.50;;;;;;;6.18;100.00;102344.38;4964131;28;20209;-49
2022/09/22 04:16:54;;;;;;;2.78;2.55;;;;;;;6.22;100.00;102344.41;4968262;28;20186;-50
2022/09/22 04:19:19;;;;;;;4.65;2.80;;;;;;;6.16;100.00;102351.47;4963103;28;20213;-53
2022/09/22 04:21:45;;;;;;;2.97;2.78;;;;;;;6.16;100.00;102340.81;4961162;28;20190;-48
2022/09/22 04:24:10;;;;;;;3.92;2.40;;;;;;;6.03;100.00;102341.66;4956988;28;20217;-50
2022/09/22 04:26:39;;;;;;;3.45;3.10;;;;;;;5.97;100.00;102334.53;4961035;28;20201;-53
2022/09/22 04:29:04;;;;;;;4.57;2.90;;;;;;;6.00;100.00;102338.09;4968726;28;20190;-48
2022/09/22 04:31:30;;;;;;;3.50;2.63;;;;;;;6.04;100.00;102340.78;4965296;28;20260;-51
2022/09/22 04:33:55;;;;;;;2.80;2.35;;;;;;;5.99;100.00;102339.84;4960926;28;20638;-50
2022/09/22 04:36:21;;;;;;;3.28;2.83;;;;;;;5.97;100.00;102334.53;4960939;28;20206;-47
2022/09/22 04:38:46;;;;;;;3.42;2.78;;;;;;;5.91;100.00;102342.47;4961240;28;20216;-47
2022/09/22 04:41:12;;;;;;;4.40;2.55;;;;;;;5.95;100.00;102338.97;4968226;28;20232;-47
2022/09/22 04:43:38;;;;;;;5.00;3.08;;;;;;;5.69;100.00;102349.41;4967933;28;20194;-46
2022/09/22 04:46:04;;;;;;;3.17;2.85;;;;;;;5.64;100.00;102335.22;4982814;28;20270;-44
2022/09/22 04:48:29;;;;;;;3.17;2.90;;;;;;;5.68;100.00;102330.78;4963440;28;21253;-46
2022/09/22 04:50:54;;;;;;;3.15;2.92;;;;;;;5.74;100.00;102339.69;4965426;28;20182;-46
2022/09/22 04:53:20;;;;;;;3.58;3.17;;;;;;;5.75;100.00;102337.91;4966816;28;20182;-46
2022/09/22 04:55:45;;;;;;;3.63;2.83;;;;;;;5.82;100.00;102330.88;4957575;28;20206;-45
2022/09/22 04:58:11;;;;;;;3.78;3.00;;;;;;;5.58;100.00;102327.19;4965630;28;20261;-48
2022/09/22 05:00:37;;;;;;;3.35;3.05;;;;;;;5.50;100.00;102321.81;4965764;28;20652;-47
2022/09/22 05:03:11;;;;;;;4.13;3.13;;;;;;;5.50;100.00;102337.75;4986690;28;20194;-48
2022/09/22 05:05:37;;;;;;;3.78;3.30;;;;;;;5.53;100.00;102339.53;4962850;28;20185;-49
2022/09/22 05:08:03;;;;;;;4.38;3.58;;;;;;;5.45;100.00;102330.66;4961565;28;20560;-46
2022/09/22 05:10:33;;;;;;;4.00;3.22;;;;;;;5.39;100.00;102339.47;4965631;28;20189;-48
2022/09/22 05:12:58;;;;;;;5.15;2.95;;;;;;;5.51;100.00;102335.97;4961580;28;20666;-48
2022/09/22 05:15:25;;;;;;;3.30;2.85;;;;;;;5.62;100.00;102339.63;4965953;28;20202;-51
2022/09/22 05:17:52;;;;;;;2.72;2.53;;;;;;;5.71;100.00;102336.16;4962617;28;20826;-49
2022/09/22 05:20:19;;;;;;;3.17;2.72;;;;;;;5.67;100.00;102337.88;4978481;28;20249;-50
2022/09/22 05:22:46;;;;;;;2.92;2.58;;;;;;;5.78;100.00;102337.94;4962070;28;20217;-49
2022/09/22 05:25:14;;;;;;;3.38;2.90;;;;;;;5.84;100.00;102337.06;4968011;28;20201;-50
2022/09/22 05:27:50;;;;;;;2.80;2.60;;;;;;;5.83;100.00;102337.97;4960200;28;20189;-49
2022/09/22 05:30:17;;;;;;;4.25;2.90;;;;;;;5.85;100.00;102337.09;4968184;28;20284;-49
2022/09/22 05:32:44;;;;;;;2.90;2.60;;;;;;;5.90;100.00;102338.03;4963244;28;20204;-48
2022/09/22 05:35:11;;;;;;;6.03;3.22;;;;;;;5.85;100.00;102330.91;4962712;28;20254;-50
2022/09/22 05:37:36;;;;;;;6.32;3.67;;;;;;;5.86;100.00;102333.56;4960527;28;20183;-51
2022/09/22 05:40:04;;;;;;;5.95;3.13;;;;;;;5.88;100.00;102336.22;4968403;28;20210;-49
2022/09/22 05:42:29;;;;;;;4.90;3.20;;;;;;;5.98;100.00;102340.75;4967648;28;20193;-49
2022/09/22 05:44:54;;;;;;;5.32;3.08;;;;;;;6.05;100.00;102331.03;4965864;28;20174;-49
2022/09/22 05:47:20;;;;;;;5.88;3.22;;;;;;;6.03;100.00;102339.00;4962945;28;20195;-49
2022/09/22 05:49:45;;;;;;;7.97;3.85;;;;;;;6.04;100.00;102335.47;4959138;28;20317;-49
2022/09/22 05:52:11;;;;;;;3.03;2.80;;;;;;;6.09;100.00;102336.38;4955148;28;20190;-51
2022/09/22 05:54:36;;;;;;;7.85;3.15;;;;;;;6.34;100.00;102336.44;4956518;28;20689;-51
2022/09/22 05:57:02;;;;;;;4.63;3.00;;;;;;;6.71;100.00;102349.88;4966969;28;20182;-51
2022/09/22 05:59:27;;;;;;;4.57;3.63;;;;;;;6.91;100.00;102342.84;4963965;28;20244;-52
2022/09/22 06:01:53;;;;;;;5.13;3.05;;;;;;;7.21;100.00;102357.97;4960153;28;20197;-50
2022/09/22 06:04:19;;;;;;;8.95;3.63;;;;;;;7.47;100.00;102343.72;4968631;28;20193;-51
2022/09/22 06:06:44;;;;;;;6.88;3.40;;;;;;;7.55;100.00;102341.94;4967937;28;20567;-49
2022/09/22 06:09:10;;;;;;;3.80;3.20;;;;;;;7.67;100.00;102338.34;4965010;28;20202;-50
2022/09/22 06:11:35;;;;;;;4.72;3.35;;;;;;;7.83;100.00;102336.56;4968939;28;20192;-47
2022/09/22 06:14:00;;;;;;;6.13;2.95;;;;;;;8.03;100.00;102337.38;4967131;28;20328;-48
2022/09/22 06:16:26;;;;;;;5.70;3.30;;;;;;;8.29;100.00;102340.81;4967853;28;20759;-48
2022/09/22 06:18:51;;;;;;;3.70;3.20;;;;;;;8.49;nan;102341.66;4968940;28;20208;-46
2022/09/22 06:21:17;;;;;;;3.53;3.20;;;;;;;8.49;100.00;102346.13;4968620;28;20182;-46
2022/09/22 06:23:43;;;;;;;4.60;3.25;;;;;;;8.61;100.00;102348.69;4980185;28;20221;-46
2022/09/22 06:26:09;;;;;;;4.53;3.38;;;;;;;8.68;100.00;102344.22;4965176;28;20539;-46
2022/09/22 06:28:35;;;;;;;3.75;3.40;;;;;;;8.78;100.00;102341.47;4965047;28;20705;-47
2022/09/22 06:31:00;;;;;;;4.13;3.20;;;;;;;8.95;100.00;102340.50;4968398;28;20190;-47
2022/09/22 06:33:27;;;;;;;3.67;2.85;;;;;;;9.17;100.00;102350.09;4968661;28;20653;-45
2022/09/22 06:35:53;;;;;;;4.25;2.90;;;;;;;9.36;100.00;102337.47;4967416;28;20206;-44
2022/09/22 06:38:18;;;;;;;3.85;3.10;;;;;;;9.54;100.00;102340.88;4963761;28;20191;-44
2022/09/22 06:40:44;;;;;;;4.15;3.10;;;;;;;9.77;100.00;102340.63;4962489;28;20209;-44
2022/09/22 06:43:21;;;;;;;4.40;3.67;;;;;;;9.88;99.40;102339.63;4965059;28;20182;-45
2022/09/22 06:45:49;;;;;;;3.53;3.22;;;;;;;10.22;99.56;102335.66;4969177;28;20209;-45
2022/09/22 06:48:15;;;;;;;6.28;3.28;;;;;;;10.46;99.09;102335.38;4967534;28;20296;-45
2022/09/22 06:50:47;;;;;;;10.75;3.28;;;;;;;10.54;98.09;102332.59;4965230;28;20235;-47
2022/09/22 06:53:12;;;;;;;4.05;3.13;;;;;;;10.78;97.29;102338.50;4962624;28;20198;-46
2022/09/22 06:55:42;;;;;;;4.55;2.60;;;;;;;11.02;96.80;102342.59;4961988;28;20540;-46
2022/09/22 06:58:08;;;;;;;3.17;2.95;;;;;;;11.32;96.29;102333.16;4970543;28;20188;-48
2022/09/22 07:00:34;;;;;;;4.07;3.15;;;;;;;11.53;95.50;102334.59;4969664;28;20190;-46
2022/09/22 07:03:14;;;;;;;4.53;3.10;;;;;;;11.57;93.96;102332.72;4965975;28;20245;-46
2022/09/22 07:05:42;;;;;;;4.63;3.28;;;;;;;11.77;93.48;102325.19;4962271;28;20212;-47
2022/09/22 07:08:08;;;;;;;3.30;2.70;;;;;;;12.09;92.96;102339.81;4958961;28;20208;-47
2022/09/22 07:10:36;;;;;;;4.25;3.00;;;;;;;12.28;92.20;102338.50;4971572;28;20190;-47
2022/09/22 07:13:04;;;;;;;5.43;3.55;;;;;;;12.40;91.72;102332.00;4983792;28;20197;-46
2022/09/22 07:15:31;;;;;;;4.72;3.47;;;;;;;12.41;91.49;102336.44;4965505;28;20202;-47
2022/09/22 07:17:56;;;;;;;11.45;4.30;;;;;;;12.76;90.90;102341.03;4963957;28;20193;-44
2022/09/22 07:20:22;;;;;;;17.73;4.72;;;;;;;12.78;90.44;102341.88;4957323;28;20682;-45
2022/09/22 07:22:47;;;;;;;6.28;4.30;;;;;;;12.86;90.85;102338.16;4963281;28;20695;-47
2022/09/22 07:25:15;;;;;;;5.15;4.65;;;;;;;13.15;90.51;102332.94;4967757;28;20266;-45
2022/09/22 07:27:40;;;;;;;11.90;5.28;;;;;;;13.18;90.26;102340.94;4965890;28;20222;-45
2022/09/22 07:30:07;;;;;;;10.00;6.13;;;;;;;12.92;90.65;102338.88;4965835;28;20304;-45
2022/09/22 07:32:34;;;;;;;9.20;6.30;;;;;;;13.15;90.56;102334.75;4972516;28;20190;-47
2022/09/22 07:35:00;;;;;;;8.65;6.07;;;;;;;13.19;90.79;102326.56;4967888;28;20211;-46
2022/09/22 07:37:28;;;;;;;8.38;6.10;;;;;;;12.99;90.30;102329.75;4969433;28;20242;-48
2022/09/22 07:39:54;;;;;;;10.48;6.10;;;;;;;13.32;90.08;102332.53;4961167;28;20729;-46
2022/09/22 07:42:20;;;;;;;9.07;6.95;;;;;;;13.25;89.75;102324.63;4965186;28;20282;-45
2022/09/22 07:50:16;;;;;;;12.90;7.18;;;;;;;13.63;88.54;102322.78;4962398;28;20241;-45
2022/09/22 07:52:48;;;;;;;8.93;7.03;;;;;;;13.73;88.63;102318.88;4967746;28;20186;-44
2022/09/22 07:55:14;;;;;;;15.95;7.25;;;;;;;13.86;88.19;102322.13;4968002;28;20217;-50
2022/09/22 07:57:39;;;;;;;7.15;6.45;;;;;;;13.86;88.04;102319.44;4963516;28;20564;-47
2022/09/22 08:00:05;;;;;;;7.90;6.82;;;;;;;13.79;87.46;102326.81;4967720;28;20213;-46
2022/09/22 08:02:38;;;;;;;10.23;7.15;;;;;;;13.78;87.55;102325.06;4971006;28;20203;-45
2022/09/22 08:05:04;;;;;;;9.38;6.95;;;;;;;13.94;87.21;102320.13;4963566;28;20182;-45
2022/09/22 08:07:36;;;;;;;7.68;6.72;;;;;;;13.86;86.54;102328.41;4965655;28;20224;-45
2022/09/22 08:10:01;;;;;;;9.50;6.78;;;;;;;13.69;87.31;102315.41;4966327;28;20579;-43
2022/09/22 08:12:27;;;;;;;9.25;6.88;;;;;;;13.76;87.66;102321.53;4961204;28;20182;-47
2022/09/22 08:14:52;;;;;;;7.30;6.60;;;;;;;13.96;87.04;102319.13;4967726;28;20277;-43
2022/09/22 08:17:18;;;;;;;8.32;7.07;;;;;;;13.94;87.20;102331.78;4969759;28;20193;-45
2022/09/22 08:19:44;;;;;;;10.77;7.05;;;;;;;13.97;86.98;102325.41;4966688;28;20214;-44
2022/09/22 08:22:10;;;;;;;9.55;7.30;;;;;;;14.10;86.68;102320.53;4970473;28;20217;-44
2022/09/22 08:24:36;;;;;;;12.55;7.53;;;;;;;14.46;86.91;102317.69;4978960;28;20191;-46
2022/09/22 08:27:02;;;;;;;9.75;6.47;;;;;;;14.52;85.51;102320.19;4959575;28;20646;-47
2022/09/22 08:29:27;;;;;;;11.05;7.22;;;;;;;14.36;85.03;102320.66;4962377;28;20205;-47
2022/09/22 08:31:53;;;;;;;7.70;6.50;;;;;;;14.38;85.40;102321.50;4963960;28;20278;-44
2022/09/22 08:34:18;;;;;;;7.35;6.35;;;;;;;14.21;84.86;102313.03;4958628;28;20217;-45
2022/09/22 08:36:45;;;;;;;13.25;6.68;;;;;;;14.51;84.93;102316.59;4965274;28;20191;-45
2022/09/22 08:39:11;;;;;;;10.98;6.60;;;;;;;14.31;85.21;102319.91;4960415;28;20206;-42
2022/09/22 08:41:48;;;;;;;8.52;6.32;;;;;;;14.57;84.80;102320.97;4963241;28;20201;-46
2022/09/22 08:44:52;;;;;;;9.40;6.20;;;;;;;14.74;84.31;102317.75;4966070;28;20352;-42
2022/09/22 08:53:12;;;;;;;9.02;6.07;;;;;;;15.21;82.82;102320.69;4968401;28;20186;-44
2022/09/22 08:55:41;;;;;;;8.48;5.75;;;;;;;15.14;81.37;102319.16;4956922;28;20294;-44
2022/09/22 08:58:28;;;;;;;9.13;5.63;;;;;;;15.42;81.54;102325.38;4970907;28;20186;-45
2022/09/22 09:01:06;;;;;;;8.55;4.85;;;;;;;15.38;81.44;102331.81;4972732;28;20194;-45
2022/09/22 09:03:31;;;;;;;7.47;5.55;;;;;;;15.56;80.62;102310.50;4964366;28;20700;-47
2022/09/22 09:06:03;;;;;;;7.38;4.85;;;;;;;15.69;79.99;102308.25;4965176;28;20274;-49
2022/09/22 09:08:46;;;;;;;7.88;4.43;;;;;;;15.52;79.09;102316.94;4961062;28;20206;-48
2022/09/22 09:11:11;;;;;;;6.68;4.28;;;;;;;15.34;78.82;102321.16;4965979;28;20335;-48
2022/09/22 09:13:52;;;;;;;6.07;4.70;;;;;;;15.45;79.43;102324.38;4968221;28;20273;-51
2022/09/22 09:16:33;;;;;;;6.95;3.60;;;;;;;15.04;79.35;102323.94;4984416;28;20202;-45
2022/09/22 09:19:13;;;;;;;10.25;3.67;;;;;;;15.82;79.81;102315.88;4966177;28;20249;-48
2022/09/22 09:21:45;;;;;;;8.02;3.45;;;;;;;15.48;77.21;102315.28;4964906;28;20178;-46
2022/09/22 09:24:25;;;;;;;5.03;2.63;;;;;;;15.52;75.78;102312.41;4964044;28;20198;-48
2022/09/22 09:26:51;;;;;;;3.80;2.83;;;;;;;15.77;75.89;102317.88;4967062;28;20234;-48
2022/09/22 09:29:21;;;;;;;6.15;2.50;;;;;;;16.40;76.40;102310.09;4966030;28;20686;-48
2022/09/22 09:31:52;;;;;;;4.43;2.00;;;;;;;16.05;73.02;102311.47;4966153;28;20191;-48
2022/09/22 09:34:20;;;;;;;2.70;1.90;;;;;;;16.88;71.74;102300.13;4962500;28;20194;-50
2022/09/22 09:36:54;;;;;;;4.70;2.38;;;;;;;16.60;70.20;102293.06;4962347;28;20572;-49
2022/09/22 09:39:32;;;;;;;4.60;1.98;;;;;;;16.69;70.00;102299.94;4960738;28;20236;-46
2022/09/22 09:42:00;;;;;;;4.95;1.70;;;;;;;16.34;72.37;102295.94;4965357;28;20194;-49
2022/09/22 09:44:32;;;;;;;4.82;2.20;;;;;;;15.98;73.99;102294.59;4964250;28;20187;-48
2022/09/22 09:47:22;;;;;;;7.00;1.60;;;;;;;16.47;72.13;102295.38;4960829;28;20185;-46
2022/09/22 09:49:50;;;;;;;4.10;1.33;;;;;;;16.79;72.58;102286.91;4959596;28;20291;-47
2022/09/22 09:52:15;;;;;;;3.78;1.48;;;;;;;16.82;67.94;102292.25;4956527;28;20197;-48
2022/09/22 09:54:42;;;;;;;4.50;1.05;;;;;;;17.13;64.21;102278.28;4966701;28;20228;-50
2022/09/22 09:57:16;;;;;;;2.90;1.15;;;;;;;17.40;63.27;102278.91;4964632;28;20273;-47
2022/09/22 10:02:47;;;;;;;2.50;0.82;;;;;;;17.63;64.28;102268.91;4956598;28;20179;-52
2022/09/22 10:05:16;;;;;;;3.63;1.20;;;;;;;17.90;63.08;102269.50;4969902;28;20687;-49
2022/09/22 10:07:44;;;;;;;7.15;1.30;;;;;;;18.02;62.19;102274.38;4968384;28;20190;-48
2022/09/22 10:10:28;;;;;;;3.53;1.27;;;;;;;17.58;62.08;102260.06;4963970;28;20245;-46
2022/09/22 10:13:02;;;;;;;3.53;0.93;;;;;;;17.37;62.76;102273.63;4961199;28;20197;-48
2022/09/22 10:15:30;;;;;;;4.20;1.10;;;;;;;17.41;63.93;102268.97;4956685;28;20198;-47
2022/09/22 10:17:55;;;;;;;2.80;0.88;;;;;;;17.69;61.67;102266.81;4960219;28;20712;-46
2022/09/22 10:20:22;;;;;;;4.35;1.13;;;;;;;17.86;59.74;102252.50;4970429;28;20469;-47
2022/09/22 10:22:48;;;;;;;4.60;1.17;;;;;;;17.52;59.31;102254.97;4957722;28;20187;-45
2022/09/22 10:25:26;;;;;;;4.53;1.15;;;;;;;17.63;60.60;102258.06;4961696;28;20185;-47
2022/09/22 10:28:10;;;;;;;5.57;1.30;;;;;;;17.78;60.01;102257.38;4967886;28;20240;-47
2022/09/22 10:30:36;;;;;;;2.67;1.17;;;;;;;18.11;58.99;102264.94;4966879;28;20192;-47
2022/09/22 10:33:22;;;;;;;4.65;0.98;;;;;;;18.20;59.69;102248.19;4967754;28;20194;-51
2022/09/22 10:36:04;;;;;;;6.32;1.38;;;;;;;17.36;58.88;102238.47;4964804;28;20221;-48
2022/09/22 10:38:34;;;;;;;3.70;1.13;;;;;;;16.91;61.67;102247.66;4962903;28;20271;-45
2022/09/22 10:41:11;;;;;;;5.57;1.15;;;;;;;16.67;62.27;102245.00;4964722;28;20213;-46
2022/09/22 10:44:13;;;;;;;6.60;1.08;;;;;;;16.48;62.37;102250.25;4960781;28;20240;-47
2022/09/22 10:46:50;;;;;;;5.70;1.20;;;;;;;16.81;63.01;102249.84;4955935;28;20296;-47
2022/09/22 10:49:46;;;;;;;4.40;1.13;;;;;;;16.80;61.83;102246.28;4962932;28;20252;-46
2022/09/22 10:52:42;;;;;;;4.13;0.93;;;;;;;16.55;62.44;102240.97;4963142;28;20630;-47
2022/09/22 10:55:07;;;;;;;3.38;0.90;;;;;;;16.12;64.54;102242.69;4967422;28;20210;-48
2022/09/22 10:57:39;;;;;;;3.45;0.80;;;;;;;16.04;64.96;102242.09;4969060;28;20277;-51
2022/09/22 11:00:13;;;;;;;4.43;1.23;;;;;;;15.84;64.54;102249.13;4962827;28;20220;-48
2022/09/22 11:02:47;;;;;;;2.65;1.00;;;;;;;16.57;64.19;102235.47;4963084;28;21038;-49
2022/09/22 11:12:15;;;;;;;4.70;1.20;;;;;;;17.46;60.76;102216.34;4964144;28;20193;-47
2022/09/22 11:14:52;;;;;;;8.00;1.40;;;;;;;17.21;61.08;102221.09;4959843;28;20598;-48
2022/09/22 11:17:45;;;;;;;3.17;0.98;;;;;;;17.59;59.95;102232.03;4958650;28;20186;-47
2022/09/22 11:20:31;;;;;;;3.45;0.93;;;;;;;17.54;60.10;102221.41;4968170;28;20716;-49
2022/09/22 11:23:20;;;;;;;2.63;0.77;;;;;;;17.90;60.04;102231.53;4965524;28;20277;-47
2022/09/22 11:26:00;;;;;;;4.10;0.90;;;;;;;16.81;61.63;102226.38;4963432;28;20298;-48
2022/09/22 11:29:00;;;;;;;4.55;1.10;;;;;;;16.61;62.06;102237.13;4962960;28;20234;-48
2022/09/22 11:31:35;;;;;;;2.88;0.98;;;;;;;16.89;61.91;102221.53;4958012;28;20238;-47
2022/09/22 11:34:11;;;;;;;2.38;0.80;;;;;;;17.65;61.48;102221.81;4964071;28;20222;-47
2022/09/22 11:36:51;;;;;;;2.78;0.80;;;;;;;17.03;60.13;102215.53;4964683;28;20847;-48
2022/09/22 11:39:22;;;;;;;2.63;0.73;;;;;;;17.21;60.80;102215.69;4963769;28;20296;-47
2022/09/22 11:42:04;;;;;;;3.97;0.95;;;;;;;17.40;60.71;102227.44;4963006;28;20201;-47
2022/09/22 11:44:37;;;;;;;3.30;0.82;;;;;;;16.98;60.55;102217.53;4964660;28;20194;-48
2022/09/22 11:47:15;;;;;;;4.05;0.90;;;;;;;16.83;62.26;102218.19;4970523;28;20195;-47
2022/09/22 11:49:43;;;;;;;4.00;1.17;;;;;;;16.93;62.26;102224.13;4958948;28;20248;-48
2022/09/22 11:52:18;;;;;;;3.67;0.90;;;;;;;16.71;62.88;102214.16;4971180;28;20554;-48
2022/09/22 11:55:04;;;;;;;3.30;0.93;;;;;;;16.52;63.29;102218.56;4966043;28;20291;-48
2022/09/22 11:57:35;;;;;;;3.30;0.75;;;;;;;16.74;63.42;102214.00;4970933;28;20217;-47
2022/09/22 12:00:18;;;;;;;4.70;1.10;;;;;;;16.83;62.52;102200.13;4967169;28;20205;-48